Airfield :
LOGIN :

Register | Disclaimer

   EN    FR    IT 

 










Legend :    VFR   Marginal VFR   IFR   Intensive IFR   Very Intensive IFR
Visi :
Ceiling :
>= 8 km
>= 3000ft
5 to 8 km
1000 to 3000 ft
1500m to 5 km
500 to 1000 ft
800 to 1500m
200 to 500 ft
< 800m
< 200 ft
Symbols :   Thunderstorms  Fog  Heavy snow  Heavy precipitations  Wind > 20 kt
SIGMETs :     Misc.  Thunderstorms  Icing  Turbulence  Mountain Waves  Volcanic Ashes







- Airport Elevation : 53 ft
- IATA code : HAM


EDDH - Hamburg

CURRENT METAR :
  • 261150Z 30016KT 270V330 9999 -RA FEW015 BKN034 08/01 Q1024 TEMPO 30015G25KT

EXPIRED METARs :
  • 261120Z 30015KT 9999 SCT027 BKN039 08/01 Q1024 TEMPO 30015G25KT
  • 261050Z 30014KT 9999 FEW023 SCT026 BKN042 08/02 Q1024 TEMPO 30015G25KT
  • 261020Z 31016KT 9999 FEW020 SCT025 BKN042 08/02 Q1024 TEMPO 30015G25KT
  • 260950Z 30017G28KT 9999 FEW019 FEW022TCU SCT024 08/02 Q1024 NOSIG
  • 260920Z 29016KT 9999 VCSH FEW015 SCT022TCU 07/03 Q1024 TEMPO 30015G25KT

TAF TAF EDDH
Valid from the 26 at 12:00 until the 27 at 18:00 UTC


261100Z 2612/2718 30012KT 9999 FEW015 BKN030
TEMPO 2612/2615 31015G25KT
TEMPO 2618/2622 BKN012
BECMG 2620/2622 28007KT
TEMPO 2700/2707 BKN005
TEMPO 2706/2718 3500 -DZRA
PROB30
TEMPO 2706/2718 2000 DZRA
BECMG 2707/2709 OVC007
BECMG 2708/2711 27012KT
No reported NOTAMs for that airfield.



MET'MAP, your aeronautical weather chart ! - Copyright ORBIFLY December 2007 - Disclaimer

ORBIFLY MET'MAP TEAM :

Programming & Development : Alexandra Zaïnal
Concept & Development : Baudouin d'Aumeries
Co-Development & Prog : Marc-Olivier Méhu
Technical & hardware support : Manuel Goepfert

Contact : metmap@orbifly.com




SOURCES & CREDITS :

   NOAA